New Franken, Wisconsin
Current Conditions -  °F | °C
As of 12:53 PM on Tuesday 21 Oct 2014 (Local Time) from KGRB Reporting Station
Clear Clear  
Wind Chill:   Ceiling: Unl
Heat Index:   Visibility: 10mi
Dew Point:   Wind: 12mph
Humidity: 59%   Direction: 60°ENE
Pressure: 30.24"   Gusts: NA
Location:  44.53°N, 87.83°W
Report Text: KGRB 211753Z 06010KT 10SM CLR 09/02 A3024 RMK AO2 SLP243 T00940017 10094 20061 50003
Loading
Personal Weather Stations






























Interactive Weather Map
Tropical Storm Tracking
New forecast layout! Learn more

10-Day Weather Forecast

Advertisements
Track Severe Weather on mobile